Etusivu
METAR-TAF:

METAR-TAF

Lentoasemat :

Huippuvuorten lentoasema

Longyearbyen, Norja

Leveyspiiri: 78-15N, Pituuspiiri: 015-28E, korkeus merenpinnasta: 2 m

Tämänhetkinen sää

Tämä raportti tehtiin 42 minuuttia sitten, kello 22.50 UTC
Tuuli 13 kn idästä
Lämpötila -8°C
Kosteus 85%
Ilmanpaine 1019 hPa
Näkyvyys: 9000 m
Hajanaisia pilviä 1200 ft:n korkeudessa
Hajonneita pilviä 2000 ft:n korkeudessa
heikkoa lumisadetta

METAR: ENSB 202250Z 08013KT 9000 -SN SCT012 BKN020 M08/M10 Q1019 RMK WIND 1400FT 08006KT

Aika: 00:32 (23:32 UTC)

Sääennuste

Ennuste voimassa 20. päivästä klo 18 UTC - 21. päivään klo 18 UTC
Tuuli 8 kn kaakosta
Näkyvyys 10 km tai enemmän
Muutamia pilviä 1000 ft:n korkeudessa
Hajonneita pilviä 3000 ft:n korkeudessa

TAF: ENSB 2018/2118 13008KT 9999 FEW010 BKN030

Säähavainnot ja -ennusteet yli 4000 lentoasemalta (METAR- ja TAF-raportit).

Käytössä olevat sääasemat on merkitty karttaan keltaisilla ja punaisilla pisteillä.

Aseta hiiri pisteen päälle nähdäksesi sääaseman nimen.

Klikkaa sitten nähdäksesi säähavainnot ja -ennusteet.

Kartan vaihtaminen: klikkaa mustalla rastilla varustettuja vihreitä pisteitä, niin voit zoomata sisään; viivalla varustettua vihreää pistettä, niin voit zoomata ulos tai vihreitä nuolia, niin pääset viereisille kartoille.


METAR-TAF: